sensor_id;sensor_type;location;lat;lon;timestamp;pressure;altitude;pressure_sealevel;temperature;humidity
71903;BME280;59778;50.310;18.780;2023-06-14T00:08:05;98620.53;;;10.92;99.28
71903;BME280;59778;50.310;18.780;2023-06-14T00:23:29;98618.81;;;10.84;98.61
71903;BME280;59778;50.310;18.780;2023-06-14T00:38:50;98613.09;;;10.66;97.66
71903;BME280;59778;50.310;18.780;2023-06-14T00:54:11;98595.16;;;10.44;97.12
71903;BME280;59778;50.310;18.780;2023-06-14T01:09:46;98587.69;;;10.46;96.47
71903;BME280;59778;50.310;18.780;2023-06-14T01:25:09;98601.25;;;10.18;95.71
71903;BME280;59778;50.310;18.780;2023-06-14T01:40:31;98600.66;;;9.80;96.56
71903;BME280;59778;50.310;18.780;2023-06-14T01:55:53;98593.78;;;9.78;96.54
71903;BME280;59778;50.310;18.780;2023-06-14T02:11:15;98577.28;;;9.37;98.80
71903;BME280;59778;50.310;18.780;2023-06-14T02:26:37;98590.53;;;9.46;98.57
71903;BME280;59778;50.310;18.780;2023-06-14T02:41:58;98592.44;;;9.67;98.68
71903;BME280;59778;50.310;18.780;2023-06-14T02:57:21;98585.81;;;9.98;98.56
71903;BME280;59778;50.310;18.780;2023-06-14T03:12:42;98593.03;;;10.39;100.00
71903;BME280;59778;50.310;18.780;2023-06-14T03:28:04;98596.00;;;10.45;100.00
71903;BME280;59778;50.310;18.780;2023-06-14T03:43:27;98595.81;;;10.80;100.00
71903;BME280;59778;50.310;18.780;2023-06-14T03:58:48;98589.28;;;11.22;100.00
71903;BME280;59778;50.310;18.780;2023-06-14T04:14:09;98592.00;;;11.76;100.00
71903;BME280;59778;50.310;18.780;2023-06-14T04:29:30;98601.63;;;11.86;100.00
71903;BME280;59778;50.310;18.780;2023-06-14T04:44:52;98594.09;;;12.14;100.00
71903;BME280;59778;50.310;18.780;2023-06-14T05:00:16;98607.06;;;12.45;100.00
71903;BME280;59778;50.310;18.780;2023-06-14T05:15:38;98608.69;;;12.92;100.00
71903;BME280;59778;50.310;18.780;2023-06-14T05:30:59;98622.88;;;13.07;100.00
71903;BME280;59778;50.310;18.780;2023-06-14T05:46:21;98639.63;;;13.23;100.00
71903;BME280;59778;50.310;18.780;2023-06-14T06:01:45;98635.44;;;13.21;100.00
71903;BME280;59778;50.310;18.780;2023-06-14T06:17:08;98637.78;;;13.62;100.00
71903;BME280;59778;50.310;18.780;2023-06-14T06:32:29;98657.84;;;13.81;100.00
71903;BME280;59778;50.310;18.780;2023-06-14T06:47:51;98666.50;;;14.09;99.46
71903;BME280;59778;50.310;18.780;2023-06-14T07:03:12;98667.94;;;14.43;97.16
71903;BME280;59778;50.310;18.780;2023-06-14T07:18:33;98666.72;;;14.63;94.29
71903;BME280;59778;50.310;18.780;2023-06-14T07:33:55;98683.31;;;14.69;94.36
71903;BME280;59778;50.310;18.780;2023-06-14T07:49:16;98703.22;;;14.76;93.25
71903;BME280;59778;50.310;18.780;2023-06-14T08:04:38;98700.31;;;14.71;93.65
71903;BME280;59778;50.310;18.780;2023-06-14T08:19:59;98696.94;;;14.93;91.57
71903;BME280;59778;50.310;18.780;2023-06-14T08:35:22;98705.28;;;15.05;91.45
71903;BME280;59778;50.310;18.780;2023-06-14T08:50:43;98714.44;;;15.53;90.12
71903;BME280;59778;50.310;18.780;2023-06-14T09:06:06;98736.25;;;16.26;86.72
71903;BME280;59778;50.310;18.780;2023-06-14T09:21:33;98742.41;;;15.74;87.23
71903;BME280;59778;50.310;18.780;2023-06-14T09:36:55;98735.97;;;15.50;90.14
71903;BME280;59778;50.310;18.780;2023-06-14T09:52:18;98748.22;;;15.23;93.08
71903;BME280;59778;50.310;18.780;2023-06-14T10:07:48;98747.59;;;15.82;93.69
71903;BME280;59778;50.310;18.780;2023-06-14T10:23:29;98751.22;;;15.94;88.27
71903;BME280;59778;50.310;18.780;2023-06-14T10:39:09;98741.31;;;16.71;85.41
71903;BME280;59778;50.310;18.780;2023-06-14T10:54:32;98742.00;;;16.36;88.33
71903;BME280;59778;50.310;18.780;2023-06-14T11:10:14;98719.00;;;16.67;84.17
71903;BME280;59778;50.310;18.780;2023-06-14T11:25:41;98722.38;;;16.81;83.36
71903;BME280;59778;50.310;18.780;2023-06-14T11:41:03;98727.88;;;17.39;82.17
71903;BME280;59778;50.310;18.780;2023-06-14T11:56:24;98713.63;;;17.88;78.10
71903;BME280;59778;50.310;18.780;2023-06-14T12:11:47;98696.44;;;19.55;70.49
71903;BME280;59778;50.310;18.780;2023-06-14T12:27:09;98699.50;;;18.25;74.31
71903;BME280;59778;50.310;18.780;2023-06-14T12:42:32;98693.25;;;17.26;78.59
71903;BME280;59778;50.310;18.780;2023-06-14T12:57:54;98683.13;;;17.04;79.57
71903;BME280;59778;50.310;18.780;2023-06-14T13:13:15;98671.16;;;17.44;77.20
71903;BME280;59778;50.310;18.780;2023-06-14T13:28:37;98674.31;;;18.16;70.86
71903;BME280;59778;50.310;18.780;2023-06-14T13:43:58;98663.56;;;18.60;66.21
71903;BME280;59778;50.310;18.780;2023-06-14T13:59:19;98660.88;;;18.65;65.46
71903;BME280;59778;50.310;18.780;2023-06-14T14:14:41;98664.59;;;19.25;65.02
71903;BME280;59778;50.310;18.780;2023-06-14T14:30:03;98665.31;;;18.82;66.65
71903;BME280;59778;50.310;18.780;2023-06-14T14:45:25;98665.16;;;18.72;64.26
71903;BME280;59778;50.310;18.780;2023-06-14T15:00:47;98652.09;;;20.85;55.16
71903;BME280;59778;50.310;18.780;2023-06-14T15:16:08;98637.56;;;20.63;58.99
71903;BME280;59778;50.310;18.780;2023-06-14T15:31:30;98642.19;;;20.04;59.25
71903;BME280;59778;50.310;18.780;2023-06-14T15:46:51;98638.00;;;19.36;59.54
71903;BME280;59778;50.310;18.780;2023-06-14T16:02:12;98643.41;;;18.71;61.23
71903;BME280;59778;50.310;18.780;2023-06-14T16:17:35;98632.84;;;18.34;65.28
71903;BME280;59778;50.310;18.780;2023-06-14T16:32:56;98641.69;;;18.36;69.97
71903;BME280;59778;50.310;18.780;2023-06-14T16:48:18;98667.66;;;17.72;72.63
71903;BME280;59778;50.310;18.780;2023-06-14T17:03:39;98684.28;;;17.42;74.99
71903;BME280;59778;50.310;18.780;2023-06-14T17:19:01;98696.84;;;16.92;75.53
71903;BME280;59778;50.310;18.780;2023-06-14T17:34:25;98720.22;;;16.41;79.86
71903;BME280;59778;50.310;18.780;2023-06-14T17:49:46;98728.31;;;16.36;81.91
71903;BME280;59778;50.310;18.780;2023-06-14T18:05:11;98732.22;;;16.29;83.38
71903;BME280;59778;50.310;18.780;2023-06-14T18:20:32;98736.94;;;15.92;86.31
71903;BME280;59778;50.310;18.780;2023-06-14T18:35:54;98744.53;;;15.90;87.22
71903;BME280;59778;50.310;18.780;2023-06-14T18:51:15;98736.22;;;15.42;89.86
71903;BME280;59778;50.310;18.780;2023-06-14T19:06:37;98749.25;;;15.03;93.66
71903;BME280;59778;50.310;18.780;2023-06-14T19:22:00;98761.69;;;14.99;96.28
71903;BME280;59778;50.310;18.780;2023-06-14T19:37:22;98770.28;;;14.78;99.19
71903;BME280;59778;50.310;18.780;2023-06-14T19:52:44;98767.56;;;14.47;100.00
71903;BME280;59778;50.310;18.780;2023-06-14T20:08:06;98770.06;;;14.48;99.96
71903;BME280;59778;50.310;18.780;2023-06-14T20:23:28;98775.19;;;14.32;99.53
71903;BME280;59778;50.310;18.780;2023-06-14T20:38:50;98769.38;;;14.15;99.74
71903;BME280;59778;50.310;18.780;2023-06-14T20:54:12;98774.34;;;13.87;99.30
71903;BME280;59778;50.310;18.780;2023-06-14T21:09:33;98782.03;;;13.58;97.59
71903;BME280;59778;50.310;18.780;2023-06-14T21:24:54;98786.69;;;13.25;99.07
71903;BME280;59778;50.310;18.780;2023-06-14T21:40:16;98782.09;;;13.12;97.78
71903;BME280;59778;50.310;18.780;2023-06-14T21:55:39;98785.22;;;12.96;99.35
71903;BME280;59778;50.310;18.780;2023-06-14T22:11:00;98788.38;;;12.87;99.54
71903;BME280;59778;50.310;18.780;2023-06-14T22:26:22;98777.22;;;12.68;100.00
71903;BME280;59778;50.310;18.780;2023-06-14T22:41:46;98772.00;;;12.67;100.00
71903;BME280;59778;50.310;18.780;2023-06-14T22:57:08;98769.91;;;12.62;100.00
71903;BME280;59778;50.310;18.780;2023-06-14T23:12:37;98766.34;;;12.55;100.00
71903;BME280;59778;50.310;18.780;2023-06-14T23:28:03;98767.56;;;12.46;100.00
71903;BME280;59778;50.310;18.780;2023-06-14T23:43:29;98766.97;;;12.44;100.00
71903;BME280;59778;50.310;18.780;2023-06-14T23:58:51;98761.72;;;12.43;100.00
